Time;durP1;ratioP1;P1;durP2;ratioP2;P2;SDS_P1;SDS_P2;PMS_P1;PMS_P2;Temp;Humidity;BMP_temperature;BMP_pressure;BME280_temperature;BME280_humidity;BME280_pressure;Samples;Min_cycle;Max_cycle;Signal;HPM_P1;HPM_P2
2021/10/25 08:04:45;;;;;;;2.37;0.90;;;12.40;99.90;;;;;;4916892;29;20225;-74
2021/10/25 08:07:18;;;;;;;3.03;1.10;;;12.50;99.90;;;;;;4918027;29;20213;-74
2021/10/25 08:09:50;;;;;;;3.50;1.57;;;12.60;99.90;;;;;;4913204;29;20233;-74
2021/10/25 08:12:19;;;;;;;3.27;1.00;;;12.80;99.90;;;;;;4915176;29;20206;-73
2021/10/25 08:14:50;;;;;;;1.80;1.00;;;12.70;99.90;;;;;;4917979;29;20206;-77
2021/10/25 08:17:21;;;;;;;4.10;1.33;;;12.80;99.90;;;;;;4918066;29;20205;-76
2021/10/25 08:19:50;;;;;;;1.90;1.00;;;12.80;99.90;;;;;;4907956;29;20207;-76
2021/10/25 08:22:17;;;;;;;2.37;0.80;;;12.70;99.90;;;;;;4897754;29;20206;-76
2021/10/25 08:24:47;;;;;;;3.43;0.83;;;12.80;99.90;;;;;;4897373;29;20671;-72
2021/10/25 08:27:15;;;;;;;1.30;0.87;;;12.90;99.90;;;;;;4897455;29;20241;-73
2021/10/25 08:29:45;;;;;;;3.70;1.10;;;12.90;99.90;;;;;;4909331;29;20587;-73
2021/10/25 08:32:23;;;;;;;3.23;1.23;;;13.00;99.90;;;;;;4897691;29;20686;-80
2021/10/25 08:35:01;;;;;;;2.17;1.20;;;13.00;99.90;;;;;;4898885;29;20226;-72
2021/10/25 08:40:13;;;;;;;2.17;0.90;;;12.70;99.90;;;;;;4908043;29;20220;-72
2021/10/25 08:42:41;;;;;;;5.07;0.90;;;12.70;99.90;;;;;;4900355;29;20238;-72
2021/10/25 08:45:12;;;;;;;1.97;0.87;;;12.80;99.90;;;;;;4898352;29;20214;-71
2021/10/25 08:47:42;;;;;;;2.33;1.20;;;12.80;99.90;;;;;;4898031;29;20249;-72
2021/10/25 08:50:13;;;;;;;4.97;1.20;;;12.80;99.90;;;;;;4907544;29;20233;-72
2021/10/25 08:52:41;;;;;;;3.10;1.57;;;12.60;99.90;;;;;;4916834;29;20237;-73
2021/10/25 08:55:10;;;;;;;2.20;1.00;;;12.70;99.90;;;;;;4916835;29;20215;-70
2021/10/25 08:57:37;;;;;;;2.40;1.00;;;12.70;99.90;;;;;;4917040;29;20623;-72
2021/10/25 09:00:07;;;;;;;1.57;0.83;;;12.70;99.90;;;;;;4916920;29;20734;-73
2021/10/25 09:02:34;;;;;;;2.93;0.97;;;12.80;99.90;;;;;;4916628;29;20229;-72
2021/10/25 09:05:04;;;;;;;3.07;1.23;;;12.70;99.90;;;;;;4916954;29;20206;-81
2021/10/25 09:07:47;;;;;;;2.20;1.30;;;12.80;99.90;;;;;;4916680;29;20304;-72
2021/10/25 09:10:15;;;;;;;3.63;0.87;;;12.80;99.90;;;;;;4916454;29;20562;-77
2021/10/25 09:12:42;;;;;;;3.13;1.10;;;12.80;99.90;;;;;;4917053;29;20229;-77
2021/10/25 09:15:09;;;;;;;2.27;1.10;;;12.80;99.90;;;;;;4916814;29;20213;-77
2021/10/25 09:17:40;;;;;;;2.17;1.00;;;12.80;99.90;;;;;;4917276;29;20216;-72
2021/10/25 09:20:08;;;;;;;3.43;1.07;;;12.80;99.90;;;;;;4907136;29;20743;-72
2021/10/25 09:22:36;;;;;;;1.87;1.10;;;12.80;99.90;;;;;;4897875;29;20236;-71
2021/10/25 09:25:04;;;;;;;3.43;1.33;;;12.80;99.90;;;;;;4897893;29;20220;-79
2021/10/25 09:27:33;;;;;;;2.70;1.20;;;12.90;99.90;;;;;;4897738;29;20689;-81
2021/10/25 09:30:11;;;;;;;1.43;0.90;;;13.10;99.90;;;;;;4905901;29;20570;-77
2021/10/25 09:32:41;;;;;;;1.47;0.97;;;13.20;99.90;;;;;;4916590;29;20229;-75
2021/10/25 09:35:16;;;;;;;1.37;1.00;;;13.30;99.90;;;;;;4916559;29;20611;-77
2021/10/25 09:37:49;;;;;;;1.83;1.00;;;13.40;99.90;;;;;;4916893;29;20215;-87
2021/10/25 09:40:23;;;;;;;2.97;1.23;;;13.50;99.90;;;;;;4916340;29;20209;-77
2021/10/25 09:43:04;;;;;;;1.60;1.00;;;13.60;99.90;;;;;;4916567;29;20230;-74
2021/10/25 09:51:10;;;;;;;1.97;1.00;;;14.10;99.90;;;;;;4898538;29;20240;-73
2021/10/25 09:53:42;;;;;;;1.87;1.20;;;13.90;99.90;;;;;;4897723;29;20240;-82
2021/10/25 09:56:10;;;;;;;4.40;1.30;;;14.20;99.90;;;;;;4897912;29;20218;-77
2021/10/25 09:58:46;;;;;;;3.03;0.90;;;14.40;99.90;;;;;;4897551;29;20270;-76
2021/10/25 10:01:15;;;;;;;2.00;1.20;;;14.30;99.90;;;;;;4914937;29;20209;-71
2021/10/25 10:03:44;;;;;;;2.73;1.30;;;14.20;99.90;;;;;;4916283;29;20233;-72
2021/10/25 10:06:11;;;;;;;1.90;1.03;;;14.40;99.90;;;;;;4917736;29;20692;-72
2021/10/25 10:08:40;;;;;;;1.70;0.90;;;14.30;99.90;;;;;;4920190;29;20324;-72
2021/10/25 10:11:08;;;;;;;2.20;1.10;;;14.40;99.90;;;;;;4902631;29;20239;-71
2021/10/25 10:13:35;;;;;;;3.53;1.23;;;14.30;99.90;;;;;;4902217;29;20255;-74
2021/10/25 10:16:05;;;;;;;1.50;0.87;;;14.40;99.90;;;;;;4919282;29;20215;-74
2021/10/25 10:18:35;;;;;;;1.57;1.03;;;14.30;99.90;;;;;;4919602;29;20276;-71
2021/10/25 10:21:05;;;;;;;4.23;1.00;;;14.40;99.90;;;;;;4919526;29;20214;-73
2021/10/25 10:23:33;;;;;;;1.60;1.07;;;14.50;99.90;;;;;;4919926;29;20236;-73
2021/10/25 10:26:03;;;;;;;1.10;0.70;;;14.50;99.90;;;;;;4920000;29;20228;-69
2021/10/25 10:28:39;;;;;;;1.40;0.80;;;14.60;99.90;;;;;;4919971;29;20229;-70
2021/10/25 10:31:13;;;;;;;2.87;1.10;;;14.60;99.90;;;;;;4920087;29;20241;-73
2021/10/25 10:33:42;;;;;;;5.03;0.70;;;14.50;99.90;;;;;;4919686;29;20225;-73
2021/10/25 10:36:15;;;;;;;4.47;1.40;;;14.50;99.90;;;;;;4919660;29;20214;-69
2021/10/25 10:38:48;;;;;;;2.87;0.90;;;14.80;99.90;;;;;;4919626;29;20689;-73
2021/10/25 10:41:17;;;;;;;2.20;0.80;;;14.90;99.90;;;;;;4919801;29;20209;-72
2021/10/25 10:43:58;;;;;;;2.00;1.07;;;15.10;99.90;;;;;;4919722;29;20309;-73
2021/10/25 10:46:26;;;;;;;4.37;1.37;;;15.30;99.90;;;;;;4919488;29;20224;-71
2021/10/25 10:48:58;;;;;;;1.00;0.70;;;15.20;99.90;;;;;;4919258;29;20710;-72
2021/10/25 10:51:32;;;;;;;3.17;1.00;;;15.10;99.90;;;;;;4919603;29;20210;-72
2021/10/25 10:54:10;;;;;;;1.33;0.70;;;15.00;99.90;;;;;;4919428;29;20231;-73
2021/10/25 10:56:42;;;;;;;1.00;0.70;;;14.90;99.90;;;;;;4919446;29;20213;-73
2021/10/25 10:59:30;;;;;;;1.77;1.20;;;14.60;99.90;;;;;;4919230;29;20674;-72
2021/10/25 11:01:57;;;;;;;1.67;1.00;;;14.50;99.90;;;;;;4919492;29;20261;-74
2021/10/25 11:04:32;;;;;;;1.70;0.93;;;14.40;99.90;;;;;;4919147;29;20736;-71
2021/10/25 11:07:00;;;;;;;1.47;0.87;;;14.40;99.90;;;;;;4919069;29;20260;-72
2021/10/25 11:09:30;;;;;;;2.63;1.00;;;14.60;99.90;;;;;;4919047;29;20344;-72
2021/10/25 11:12:02;;;;;;;2.13;0.70;;;14.70;99.90;;;;;;4919092;29;20238;-73
2021/10/25 11:14:33;;;;;;;1.93;1.07;;;14.70;99.90;;;;;;4918954;29;20717;-72
2021/10/25 11:17:14;;;;;;;1.10;0.90;;;14.80;99.90;;;;;;4918729;29;20729;-73
2021/10/25 11:19:46;;;;;;;2.33;1.10;;;14.80;99.90;;;;;;4918935;29;20213;-72
2021/10/25 11:22:23;;;;;;;3.00;0.80;;;14.80;99.90;;;;;;4918874;29;20209;-72
2021/10/25 11:24:51;;;;;;;1.73;1.00;;;14.60;99.90;;;;;;4918870;29;20205;-73
2021/10/25 11:27:29;;;;;;;1.93;1.13;;;14.60;99.90;;;;;;4918914;29;20213;-73
2021/10/25 11:30:05;;;;;;;1.33;0.80;;;14.70;99.90;;;;;;4918795;29;20241;-73
2021/10/25 11:32:32;;;;;;;1.30;0.90;;;15.00;99.90;;;;;;4918555;29;20205;-73
2021/10/25 11:35:00;;;;;;;1.67;1.10;;;15.20;99.90;;;;;;4918867;29;20224;-72
2021/10/25 11:37:27;;;;;;;1.50;1.17;;;15.10;99.90;;;;;;4918927;29;20218;-71
2021/10/25 11:39:58;;;;;;;1.47;0.90;;;15.20;99.90;;;;;;4918916;29;20214;-73
2021/10/25 11:42:28;;;;;;;3.17;1.17;;;15.00;99.90;;;;;;4918631;29;20241;-73
2021/10/25 11:44:57;;;;;;;1.43;0.93;;;15.20;99.90;;;;;;4918473;29;20216;-72
2021/10/25 11:47:26;;;;;;;2.57;1.10;;;15.30;99.90;;;;;;4918055;29;20698;-73
2021/10/25 11:49:54;;;;;;;2.17;0.97;;;15.20;99.90;;;;;;4918567;29;20237;-70
2021/10/25 11:52:21;;;;;;;3.00;0.83;;;15.00;99.90;;;;;;4918343;29;20663;-70
2021/10/25 11:54:49;;;;;;;6.60;1.07;;;15.00;99.90;;;;;;4918384;29;20300;-72
2021/10/25 11:57:18;;;;;;;2.10;1.10;;;15.10;99.90;;;;;;4918237;29;20213;-73
2021/10/25 11:59:55;;;;;;;1.87;1.00;;;15.10;99.90;;;;;;4918138;29;20209;-71
2021/10/25 12:02:24;;;;;;;3.00;1.03;;;15.00;99.90;;;;;;4918033;29;20233;-71
2021/10/25 12:04:51;;;;;;;1.80;1.10;;;15.00;99.90;;;;;;4918103;29;20658;-71
2021/10/25 12:07:18;;;;;;;2.70;0.97;;;15.00;99.90;;;;;;4918252;29;20305;-71
2021/10/25 12:09:46;;;;;;;4.27;1.20;;;15.10;99.90;;;;;;4917953;29;20260;-71
2021/10/25 12:12:15;;;;;;;3.23;1.10;;;15.10;99.90;;;;;;4917945;29;20210;-72
2021/10/25 12:14:44;;;;;;;3.47;0.93;;;15.00;99.90;;;;;;4918266;29;20209;-70
2021/10/25 12:17:17;;;;;;;2.20;1.03;;;15.10;99.90;;;;;;4917976;29;20212;-71
2021/10/25 12:19:45;;;;;;;1.30;0.90;;;15.10;99.90;;;;;;4917949;29;20292;-71
2021/10/25 12:22:17;;;;;;;4.67;1.10;;;15.00;99.90;;;;;;4917672;29;20209;-72
2021/10/25 12:24:46;;;;;;;2.47;1.00;;;14.90;99.90;;;;;;4917823;29;20277;-70
2021/10/25 12:27:15;;;;;;;1.70;0.93;;;15.00;99.90;;;;;;4917736;29;20296;-72
2021/10/25 12:29:42;;;;;;;1.40;0.80;;;15.20;99.90;;;;;;4916984;29;20241;-72
2021/10/25 12:32:13;;;;;;;1.80;1.10;;;15.40;99.90;;;;;;4917325;29;20214;-72
2021/10/25 12:34:54;;;;;;;1.00;0.70;;;15.60;99.90;;;;;;4917702;29;20226;-72
2021/10/25 12:37:26;;;;;;;3.60;0.90;;;15.40;99.90;;;;;;4917427;29;20206;-71
2021/10/25 12:39:55;;;;;;;4.47;0.70;;;15.40;99.90;;;;;;4917282;29;20210;-71
2021/10/25 12:42:23;;;;;;;3.47;1.10;;;15.60;99.90;;;;;;4917047;29;20214;-72
2021/10/25 12:44:53;;;;;;;2.87;1.07;;;15.60;99.90;;;;;;4917515;29;20210;-73
2021/10/25 12:47:23;;;;;;;1.87;1.10;;;15.60;99.90;;;;;;4917159;29;20273;-72
2021/10/25 12:49:52;;;;;;;2.40;1.00;;;15.60;99.90;;;;;;4917082;29;20245;-72
2021/10/25 12:52:20;;;;;;;3.30;1.00;;;15.80;99.90;;;;;;4917066;29;20727;-72
2021/10/25 12:54:47;;;;;;;2.93;1.00;;;15.80;99.90;;;;;;4917136;29;20292;-71
2021/10/25 12:57:19;;;;;;;1.57;0.93;;;15.60;99.90;;;;;;4917154;29;20219;-70
2021/10/25 12:59:57;;;;;;;0.97;0.80;;;15.60;99.90;;;;;;4916993;29;20209;-72
2021/10/25 13:02:28;;;;;;;1.97;0.90;;;15.50;99.90;;;;;;4916646;29;20241;-68
2021/10/25 13:05:06;;;;;;;1.60;0.97;;;15.60;99.90;;;;;;4917324;29;20236;-71
2021/10/25 13:07:33;;;;;;;2.60;1.10;;;15.50;99.90;;;;;;4917302;29;20582;-72
2021/10/25 13:09:59;;;;;;;2.03;0.80;;;15.50;99.90;;;;;;4917128;29;20237;-71
2021/10/25 13:12:26;;;;;;;2.50;1.10;;;15.60;99.90;;;;;;4916831;29;20205;-72
2021/10/25 13:14:55;;;;;;;1.33;1.07;;;15.70;99.90;;;;;;4916874;29;20671;-69
2021/10/25 13:17:22;;;;;;;2.83;1.13;;;15.80;99.90;;;;;;4917125;29;20237;-72
2021/10/25 13:19:50;;;;;;;3.27;1.03;;;15.80;99.90;;;;;;4917185;29;20205;-72
2021/10/25 13:22:17;;;;;;;2.87;1.30;;;15.70;99.90;;;;;;4916628;29;20209;-72
2021/10/25 13:24:44;;;;;;;2.80;1.47;;;15.90;99.90;;;;;;4916840;29;20693;-71
2021/10/25 13:27:11;;;;;;;4.17;1.50;;;15.90;99.90;;;;;;4916895;29;20216;-70
2021/10/25 13:29:38;;;;;;;3.60;1.50;;;16.00;99.90;;;;;;4916721;29;20248;-72
2021/10/25 13:32:05;;;;;;;2.93;1.30;;;15.90;99.90;;;;;;4916836;29;20238;-70
2021/10/25 13:34:32;;;;;;;2.93;1.43;;;15.60;99.90;;;;;;4916643;29;20229;-67
2021/10/25 13:37:00;;;;;;;3.63;1.77;;;15.50;99.90;;;;;;4916869;29;20217;-74
2021/10/25 13:39:27;;;;;;;2.13;1.00;;;15.30;99.90;;;;;;4917273;29;20223;-71
2021/10/25 13:41:54;;;;;;;2.53;1.60;;;15.20;99.90;;;;;;4920774;29;20300;-69
2021/10/25 13:44:21;;;;;;;3.63;1.10;;;15.30;99.90;;;;;;4921139;29;20801;-71
2021/10/25 13:46:48;;;;;;;2.57;1.30;;;15.50;99.90;;;;;;4920222;29;20213;-72
2021/10/25 13:49:15;;;;;;;3.07;1.50;;;15.70;99.90;;;;;;4920337;29;20236;-70
2021/10/25 13:51:42;;;;;;;2.13;1.20;;;15.80;99.90;;;;;;4920355;29;20212;-71
2021/10/25 13:54:10;;;;;;;2.77;1.53;;;15.80;99.90;;;;;;4920516;29;20229;-70
2021/10/25 13:56:38;;;;;;;2.10;1.23;;;16.00;99.90;;;;;;4920844;29;20213;-72
2021/10/25 13:59:05;;;;;;;2.37;1.40;;;16.20;99.90;;;;;;4920918;29;20233;-73
2021/10/25 14:01:32;;;;;;;3.00;1.47;;;16.10;99.90;;;;;;4920562;29;20245;-73
2021/10/25 14:04:00;;;;;;;4.63;1.73;;;15.90;99.90;;;;;;4920423;29;20288;-72
2021/10/25 14:06:28;;;;;;;2.47;1.60;;;15.70;99.90;;;;;;4920628;29;20213;-72
2021/10/25 14:08:55;;;;;;;2.33;1.53;;;15.60;99.90;;;;;;4920107;29;20218;-72
2021/10/25 14:11:27;;;;;;;4.33;1.67;;;15.60;99.90;;;;;;4920484;29;20289;-71
2021/10/25 14:14:07;;;;;;;4.43;2.20;;;15.70;99.90;;;;;;4920217;29;20642;-71
2021/10/25 14:16:36;;;;;;;4.13;2.17;;;15.80;99.90;;;;;;4920272;29;20276;-72
2021/10/25 14:19:05;;;;;;;3.00;1.80;;;15.90;99.90;;;;;;4919936;29;20214;-71
2021/10/25 14:21:36;;;;;;;5.23;1.87;;;15.80;99.90;;;;;;4919880;29;20206;-71
2021/10/25 14:24:05;;;;;;;3.63;1.53;;;15.60;99.90;;;;;;4920310;29;20229;-72
2021/10/25 14:26:33;;;;;;;3.93;2.33;;;15.50;99.90;;;;;;4920144;29;20220;-73
2021/10/25 14:29:00;;;;;;;4.10;2.20;;;15.20;99.90;;;;;;4919898;29;20220;-72
2021/10/25 14:31:27;;;;;;;4.70;2.00;;;15.00;99.90;;;;;;4919747;29;20241;-72
2021/10/25 14:33:55;;;;;;;3.30;2.00;;;15.10;99.90;;;;;;4919646;29;20320;-71
2021/10/25 14:36:23;;;;;;;4.17;2.23;;;15.00;99.90;;;;;;4920094;29;20296;-71
2021/10/25 14:39:00;;;;;;;5.20;2.40;;;14.90;99.90;;;;;;4919809;29;20300;-72
2021/10/25 14:41:35;;;;;;;5.90;2.20;;;14.90;99.90;;;;;;4919591;29;20247;-72
2021/10/25 14:44:07;;;;;;;4.70;2.60;;;14.90;99.90;;;;;;4919539;29;20233;-71
2021/10/25 14:46:46;;;;;;;5.30;2.27;;;15.00;99.90;;;;;;4919383;29;20300;-71
2021/10/25 14:53:20;;;;;;;4.23;2.20;;;15.00;99.90;;;;;;4919614;29;20296;-72
2021/10/25 14:55:03;;;;;;;3.73;2.27;;;14.90;99.90;;;;;;4919405;29;20204;-71
2021/10/25 14:57:30;;;;;;;4.10;2.00;;;14.80;99.90;;;;;;4919401;29;20209;-72
2021/10/25 14:59:58;;;;;;;3.63;2.30;;;14.70;99.90;;;;;;4919399;29;20300;-71
2021/10/25 15:02:25;;;;;;;4.27;2.40;;;14.70;99.90;;;;;;4919065;29;20214;-72
2021/10/25 15:04:53;;;;;;;4.77;2.00;;;14.80;99.90;;;;;;4919211;29;20209;-71
2021/10/25 15:07:23;;;;;;;3.90;1.93;;;14.80;99.90;;;;;;4919087;29;20663;-72
2021/10/25 15:09:52;;;;;;;3.47;1.90;;;14.90;99.90;;;;;;4919244;29;20229;-73
2021/10/25 15:12:21;;;;;;;3.53;2.10;;;14.90;99.90;;;;;;4918895;29;20221;-72
2021/10/25 15:14:48;;;;;;;6.17;1.87;;;14.90;99.90;;;;;;4919244;29;20210;-71
2021/10/25 15:17:17;;;;;;;3.53;2.20;;;14.80;99.90;;;;;;4919030;29;20220;-71
2021/10/25 15:19:44;;;;;;;3.70;2.30;;;14.60;99.90;;;;;;4918814;29;20214;-71
2021/10/25 15:22:14;;;;;;;3.07;1.90;;;14.60;99.90;;;;;;4918838;29;20666;-72
2021/10/25 15:24:45;;;;;;;4.73;2.00;;;14.50;99.90;;;;;;4918988;29;20212;-72
2021/10/25 15:27:14;;;;;;;3.50;2.20;;;14.40;99.90;;;;;;4919060;29;20257;-72
2021/10/25 15:29:41;;;;;;;4.63;2.23;;;14.30;99.90;;;;;;4918787;29;20206;-72
2021/10/25 15:32:10;;;;;;;4.47;2.17;;;14.50;99.90;;;;;;4918636;29;20220;-72
2021/10/25 15:34:41;;;;;;;5.10;2.30;;;14.50;99.90;;;;;;4918602;29;20233;-72
2021/10/25 15:37:08;;;;;;;2.80;2.10;;;14.40;99.90;;;;;;4918590;29;20277;-72
2021/10/25 15:39:35;;;;;;;4.77;2.47;;;14.40;99.90;;;;;;4918689;29;20216;-72
2021/10/25 15:42:02;;;;;;;6.37;2.70;;;14.40;99.90;;;;;;4918533;29;20212;-72
2021/10/25 15:44:29;;;;;;;4.07;2.50;;;14.40;99.90;;;;;;4918361;29;20238;-70
2021/10/25 15:46:56;;;;;;;3.40;2.20;;;14.30;99.90;;;;;;4918096;29;20221;-72
2021/10/25 15:49:23;;;;;;;5.70;2.60;;;14.30;99.90;;;;;;4918652;29;20296;-72
2021/10/25 15:51:51;;;;;;;4.27;2.57;;;14.20;99.90;;;;;;4918371;29;20833;-71
2021/10/25 15:54:19;;;;;;;5.50;2.60;;;14.10;99.90;;;;;;4918350;29;20257;-71
2021/10/25 15:56:48;;;;;;;5.67;3.07;;;14.10;99.90;;;;;;4918364;29;20209;-72
2021/10/25 15:59:16;;;;;;;5.70;3.47;;;13.90;99.90;;;;;;4918214;29;20210;-71
2021/10/25 16:01:43;;;;;;;4.77;3.17;;;13.90;99.90;;;;;;4918301;29;20273;-72
2021/10/25 16:04:10;;;;;;;7.40;4.10;;;13.90;99.90;;;;;;4916923;29;20725;-71
2021/10/25 16:06:37;;;;;;;7.03;4.37;;;13.90;99.90;;;;;;4918357;29;20297;-72
2021/10/25 16:09:05;;;;;;;8.37;4.17;;;13.70;99.90;;;;;;4918141;29;20214;-71
2021/10/25 16:11:34;;;;;;;8.27;4.40;;;13.50;99.90;;;;;;4918040;29;20233;-70
2021/10/25 16:14:01;;;;;;;6.63;3.73;;;13.50;99.90;;;;;;4918014;29;20229;-68
2021/10/25 16:16:27;;;;;;;7.97;4.03;;;13.50;99.90;;;;;;4918136;29;20209;-71
2021/10/25 16:18:54;;;;;;;6.37;3.60;;;13.50;99.90;;;;;;4917631;29;20216;-68
2021/10/25 16:21:21;;;;;;;15.50;6.17;;;13.60;99.90;;;;;;4917889;29;20582;-71
2021/10/25 16:23:48;;;;;;;8.20;4.67;;;13.70;99.90;;;;;;4917660;29;20232;-72
2021/10/25 16:26:17;;;;;;;7.50;3.97;;;13.70;99.90;;;;;;4917819;29;20218;-71
2021/10/25 16:28:44;;;;;;;7.80;3.83;;;13.60;99.90;;;;;;4917802;29;20206;-72
2021/10/25 16:31:11;;;;;;;10.40;4.50;;;13.40;99.90;;;;;;4917579;29;20710;-73
2021/10/25 16:33:38;;;;;;;7.60;4.00;;;13.30;99.90;;;;;;4917362;29;20726;-72
2021/10/25 16:36:05;;;;;;;7.03;3.63;;;13.30;99.90;;;;;;4917540;29;20308;-73
2021/10/25 16:38:33;;;;;;;7.07;3.90;;;13.20;99.90;;;;;;4917594;29;20671;-71
2021/10/25 16:41:00;;;;;;;8.73;3.70;;;13.10;99.90;;;;;;4917554;29;20217;-72
2021/10/25 16:43:28;;;;;;;6.00;3.70;;;13.00;99.90;;;;;;4917074;29;20715;-72
2021/10/25 16:45:55;;;;;;;9.87;4.40;;;12.80;99.90;;;;;;4917450;29;20217;-71
2021/10/25 16:48:27;;;;;;;5.73;3.43;;;12.90;99.90;;;;;;4917150;29;20685;-73
2021/10/25 16:50:59;;;;;;;9.53;3.70;;;12.90;99.90;;;;;;4917258;29;20241;-72
2021/10/25 17:09:50;;;;;;;6.20;3.93;;;12.50;99.90;;;;;;4917031;29;20209;-72
2021/10/25 17:12:17;;;;;;;7.27;3.80;;;12.50;99.90;;;;;;4916983;29;20224;-72
2021/10/25 17:14:46;;;;;;;5.47;3.27;;;12.50;99.90;;;;;;4917083;29;20209;-72
2021/10/25 17:17:13;;;;;;;6.50;3.60;;;12.50;99.90;;;;;;4917204;29;20225;-72
2021/10/25 17:19:40;;;;;;;8.37;3.70;;;12.60;99.90;;;;;;4916943;29;20213;-72
2021/10/25 17:22:09;;;;;;;7.73;4.10;;;12.50;99.90;;;;;;4916682;29;20217;-71
2021/10/25 17:24:37;;;;;;;6.60;4.33;;;12.50;99.90;;;;;;4916688;29;20229;-72
2021/10/25 17:27:04;;;;;;;6.43;3.70;;;12.50;99.90;;;;;;4916609;29;20213;-73
2021/10/25 17:29:31;;;;;;;8.77;4.60;;;12.40;99.90;;;;;;4916864;29;20209;-73
2021/10/25 17:31:59;;;;;;;9.93;5.17;;;12.40;99.90;;;;;;4916338;29;20242;-73
2021/10/25 17:34:26;;;;;;;9.03;4.90;;;12.40;99.90;;;;;;4916631;29;20233;-73
2021/10/25 17:36:53;;;;;;;8.47;4.90;;;12.30;99.90;;;;;;4916603;29;20567;-72
2021/10/25 17:39:19;;;;;;;8.60;4.90;;;12.30;99.90;;;;;;4916697;29;20662;-72
2021/10/25 17:41:48;;;;;;;12.73;4.70;;;12.40;99.90;;;;;;4917070;29;20300;-71
2021/10/25 17:44:16;;;;;;;8.73;5.17;;;12.40;99.90;;;;;;4916731;29;20233;-72
2021/10/25 17:46:43;;;;;;;11.97;4.90;;;12.40;99.90;;;;;;4916159;29;20249;-73
2021/10/25 17:49:11;;;;;;;10.97;5.20;;;12.40;99.90;;;;;;4916579;29;20300;-71
2021/10/25 17:51:42;;;;;;;8.47;4.57;;;12.40;99.90;;;;;;4909907;29;20332;-68
2021/10/25 17:54:09;;;;;;;9.63;5.63;;;12.40;99.90;;;;;;4911717;29;20674;-74
2021/10/25 17:56:36;;;;;;;8.60;4.87;;;12.40;99.90;;;;;;4915689;29;20206;-71
2021/10/25 17:59:03;;;;;;;11.83;5.00;;;12.50;99.90;;;;;;4912922;29;20628;-73
2021/10/25 18:01:30;;;;;;;12.57;5.53;;;12.50;99.90;;;;;;4901882;29;20214;-72
2021/10/25 18:03:57;;;;;;;7.20;4.60;;;12.50;99.90;;;;;;4896639;29;20238;-75
2021/10/25 18:06:28;;;;;;;8.20;4.43;;;12.50;99.90;;;;;;4897325;29;20305;-75
2021/10/25 18:08:56;;;;;;;7.43;4.43;;;12.50;99.90;;;;;;4902488;29;20206;-75
2021/10/25 18:11:23;;;;;;;6.80;4.47;;;12.50;99.90;;;;;;4903825;29;20234;-75
2021/10/25 18:13:51;;;;;;;8.23;4.63;;;12.50;99.90;;;;;;4897050;29;20256;-74
2021/10/25 18:16:17;;;;;;;9.23;4.60;;;12.40;99.90;;;;;;4897213;29;20207;-76
2021/10/25 18:18:44;;;;;;;10.53;4.50;;;12.40;99.90;;;;;;4896924;29;20293;-76
2021/10/25 18:21:11;;;;;;;10.10;4.57;;;12.40;99.90;;;;;;4907151;29;20213;-76
2021/10/25 18:23:39;;;;;;;6.73;3.77;;;12.40;99.90;;;;;;4915828;29;20741;-75
2021/10/25 18:26:06;;;;;;;8.13;4.13;;;12.40;99.90;;;;;;4916209;29;20220;-75
2021/10/25 18:28:33;;;;;;;7.10;4.13;;;12.50;99.90;;;;;;4919768;29;20212;-76
2021/10/25 18:31:00;;;;;;;7.97;4.53;;;12.40;99.90;;;;;;4919273;29;20731;-76
2021/10/25 18:33:28;;;;;;;7.27;4.27;;;12.40;99.90;;;;;;4919150;29;20308;-77
2021/10/25 18:35:55;;;;;;;10.93;4.60;;;12.30;99.90;;;;;;4919380;29;20217;-76
2021/10/25 18:38:22;;;;;;;10.03;4.67;;;12.30;99.90;;;;;;4919540;29;20253;-75
2021/10/25 18:40:50;;;;;;;9.73;4.80;;;12.40;99.90;;;;;;4911802;29;20221;-75
2021/10/25 18:43:17;;;;;;;9.20;4.73;;;12.30;99.90;;;;;;4900596;29;20262;-73
2021/10/25 18:45:45;;;;;;;10.60;4.47;;;12.30;99.90;;;;;;4907889;29;20683;-73
2021/10/25 18:48:16;;;;;;;9.40;4.50;;;12.40;99.90;;;;;;4918553;29;20221;-73
2021/10/25 18:50:43;;;;;;;9.30;4.60;;;12.40;99.90;;;;;;4919108;29;20243;-72
2021/10/25 18:53:11;;;;;;;7.27;4.43;;;12.40;99.90;;;;;;4919007;29;20226;-73
2021/10/25 18:55:38;;;;;;;9.30;5.20;;;12.50;99.90;;;;;;4919429;29;20265;-73
2021/10/25 18:58:07;;;;;;;10.80;4.47;;;12.40;99.90;;;;;;4919323;29;20209;-73
2021/10/25 19:00:37;;;;;;;10.00;4.53;;;12.40;99.90;;;;;;4913134;29;20217;-73
2021/10/25 19:03:04;;;;;;;7.97;4.63;;;12.40;99.90;;;;;;4899933;29;20230;-73
2021/10/25 19:05:33;;;;;;;8.00;4.63;;;12.40;99.90;;;;;;4900027;29;20221;-73
2021/10/25 19:07:59;;;;;;;8.43;4.40;;;12.40;99.90;;;;;;4899935;29;20206;-72
2021/10/25 19:10:27;;;;;;;8.27;4.50;;;12.30;99.90;;;;;;4904294;29;20312;-73
2021/10/25 19:12:55;;;;;;;11.07;4.43;;;12.40;99.90;;;;;;4918510;29;20237;-73
2021/10/25 19:15:24;;;;;;;7.87;4.10;;;12.30;99.90;;;;;;4918430;29;20205;-73
2021/10/25 19:17:52;;;;;;;8.20;4.20;;;12.30;99.90;;;;;;4918755;29;20205;-71
2021/10/25 19:20:20;;;;;;;9.03;4.80;;;12.30;99.90;;;;;;4918342;29;20293;-72
2021/10/25 19:22:47;;;;;;;7.83;4.73;;;12.30;99.90;;;;;;4918761;29;20325;-72
2021/10/25 19:25:18;;;;;;;8.20;4.50;;;12.20;99.90;;;;;;4918510;29;20209;-72
2021/10/25 19:27:45;;;;;;;8.73;4.90;;;12.20;99.90;;;;;;4918322;29;20221;-73
2021/10/25 19:30:12;;;;;;;9.37;4.43;;;12.30;99.90;;;;;;4915795;29;20222;-69
2021/10/25 19:32:41;;;;;;;9.33;4.60;;;12.30;99.90;;;;;;4899426;29;20253;-71
2021/10/25 19:35:10;;;;;;;6.17;4.20;;;12.40;99.90;;;;;;4899634;29;20215;-71
2021/10/25 19:37:38;;;;;;;9.07;5.00;;;12.40;99.90;;;;;;4899113;29;20686;-72
2021/10/25 19:40:07;;;;;;;9.73;4.77;;;12.40;99.90;;;;;;4901357;29;20302;-73
2021/10/25 19:42:35;;;;;;;8.70;4.63;;;12.30;99.90;;;;;;4918685;29;20216;-73
2021/10/25 19:45:02;;;;;;;7.63;4.77;;;12.30;99.90;;;;;;4918391;29;20209;-73
2021/10/25 19:47:29;;;;;;;9.83;4.80;;;12.30;99.90;;;;;;4918052;29;20228;-72
2021/10/25 19:49:57;;;;;;;11.83;4.87;;;12.40;99.90;;;;;;4917941;29;20205;-73
2021/10/25 19:52:24;;;;;;;8.83;4.70;;;12.60;99.90;;;;;;4917770;29;20606;-73
2021/10/25 19:54:51;;;;;;;11.57;5.20;;;12.50;99.90;;;;;;4918105;29;20220;-72
2021/10/25 19:57:18;;;;;;;7.50;4.53;;;12.50;99.90;;;;;;4918091;29;20215;-71
2021/10/25 19:59:45;;;;;;;7.03;4.10;;;12.50;99.90;;;;;;4918342;29;20233;-73
2021/10/25 20:02:14;;;;;;;8.93;4.40;;;12.40;99.90;;;;;;4917748;29;20217;-73
2021/10/25 20:04:41;;;;;;;8.03;4.27;;;12.30;99.90;;;;;;4917736;29;20216;-73
2021/10/25 20:07:10;;;;;;;9.70;4.60;;;12.30;99.90;;;;;;4918180;29;20300;-72
2021/10/25 20:09:37;;;;;;;8.43;4.47;;;12.30;99.90;;;;;;4917963;29;20209;-72
2021/10/25 20:12:06;;;;;;;10.77;4.50;;;12.30;99.90;;;;;;4917533;29;20238;-73
2021/10/25 20:14:34;;;;;;;8.77;4.83;;;12.30;99.90;;;;;;4917426;29;20234;-73
2021/10/25 20:17:02;;;;;;;8.00;4.83;;;12.20;99.90;;;;;;4917596;29;20341;-72
2021/10/25 20:19:30;;;;;;;7.77;4.27;;;12.20;99.90;;;;;;4917490;29;20240;-73
2021/10/25 20:21:56;;;;;;;8.93;4.73;;;12.10;99.90;;;;;;4917664;29;20575;-69
2021/10/25 20:24:25;;;;;;;8.97;5.30;;;12.10;99.90;;;;;;4917822;29;20229;-72
2021/10/25 20:26:52;;;;;;;10.10;5.37;;;12.10;99.90;;;;;;4917406;29;20205;-73
2021/10/25 20:29:19;;;;;;;7.43;4.33;;;12.10;99.90;;;;;;4917280;29;20571;-73
2021/10/25 20:31:46;;;;;;;9.13;4.60;;;12.00;99.90;;;;;;4916912;29;20586;-72
2021/10/25 20:34:13;;;;;;;9.17;4.50;;;12.00;99.90;;;;;;4917219;29;20620;-71
2021/10/25 20:36:40;;;;;;;10.27;5.00;;;12.00;99.90;;;;;;4917405;29;20222;-72
2021/10/25 20:39:07;;;;;;;12.50;5.20;;;12.00;99.90;;;;;;4917166;29;20219;-72
2021/10/25 20:41:36;;;;;;;10.77;4.77;;;11.80;99.90;;;;;;4916963;29;20683;-71
2021/10/25 20:44:03;;;;;;;9.40;5.07;;;11.90;99.90;;;;;;4916888;29;20236;-71
2021/10/25 20:46:30;;;;;;;12.13;5.43;;;11.90;99.90;;;;;;4917056;29;20221;-72
2021/10/25 20:48:57;;;;;;;9.37;5.03;;;11.90;99.90;;;;;;4916743;29;20215;-72
2021/10/25 20:51:24;;;;;;;9.07;5.13;;;11.80;99.90;;;;;;4916805;29;20244;-72
2021/10/25 20:53:51;;;;;;;12.90;5.10;;;11.70;99.90;;;;;;4911099;29;20233;-70
2021/10/25 20:56:17;;;;;;;10.13;5.10;;;11.70;99.90;;;;;;4916724;29;20577;-74
2021/10/25 20:58:46;;;;;;;8.80;4.80;;;11.70;99.90;;;;;;4917250;29;20202;-75
2021/10/25 21:01:13;;;;;;;9.50;5.03;;;11.80;99.90;;;;;;4917045;29;20213;-78
2021/10/25 21:03:46;;;;;;;8.97;5.00;;;11.80;99.90;;;;;;4901178;29;20791;-74
2021/10/25 21:06:13;;;;;;;12.23;4.77;;;11.80;99.90;;;;;;4897656;29;20253;-74
2021/10/25 21:08:40;;;;;;;11.17;5.37;;;11.70;99.90;;;;;;4897990;29;20206;-72
2021/10/25 21:11:07;;;;;;;8.27;4.70;;;11.80;99.90;;;;;;4905388;29;20305;-74
2021/10/25 21:13:34;;;;;;;10.47;5.07;;;11.70;99.90;;;;;;4902060;29;20591;-73
2021/10/25 21:16:02;;;;;;;9.97;5.60;;;11.70;99.90;;;;;;4897872;29;20305;-76
2021/10/25 21:18:29;;;;;;;9.37;5.00;;;11.60;99.90;;;;;;4897532;29;20210;-76
2021/10/25 21:20:56;;;;;;;11.43;5.67;;;11.60;99.90;;;;;;4897914;29;20213;-76
2021/10/25 21:23:23;;;;;;;8.83;5.20;;;11.70;99.90;;;;;;4910161;29;20229;-70
2021/10/25 21:25:50;;;;;;;8.50;5.07;;;11.70;99.90;;;;;;4910454;29;20292;-78